Cle Elum, WA

3:42 PM PDT on August 22, 2014 (GMT -0700)
Cle Elum-Roslyn High School | Change Station
CLOSE
Current Station
Personal Weather Station
Location: Cle Elum, WA
Elevation: 2107 ft
Nearby Weather Stations

Elev 2107 ft 47.20 °N, 120.97 °W | Updated 14 minutes ago

Partly Cloudy
Partly Cloudy
73.7 °F
Feels Like 77 °F
N
6.0
Wind Variable Wind from WSW

Today
High -- | Low -- °F
--% Chance of Precip.
Yesterday
High -- | Low -- °F
Precip. -- in
6:09 AM 8:02 PM
Waning Crescent, 6% visible
Pressure 29.94 in
Visibility 10.0 miles
Clouds Few 11000 ft
Heat Index 77 °F
Dew Point 45 °F
Humidity 36%
Rainfall 0.00 in
Snow Depth 1 in
UV 1.9 out of 12
Pollen 4.10 out of 12
Air Quality Not available.
Flu Activity Not available.
METAR KELN 222153Z AUTO 13006KT 10SM FEW110 28/08 A2997 RMK AO2 SLP137 T02780078

More Conditions Fewer Conditions

Pressure 29.94 in
Visibility 10.0 miles
Clouds Few 11000 ft
Heat Index 77 °F
Dew Point 45 °F
Humidity 36%
Rainfall 0.00 in
Snow Depth 1 in
UV 1.9 out of 12
Pollen 4.10 out of 12
Air Quality Not available.
Flu Activity Not available.
METAR KELN 222153Z AUTO 13006KT 10SM FEW110 28/08 A2997 RMK AO2 SLP137 T02780078

More Conditions Fewer Conditions

Nowcast | as of 3:27 PM PDT on August 22, 2014

Thunderstorms will be increasing in coverage across northeast Oregon and southeast Washington through the afternoon. The storms will contain small hail, brief heavy rain and wind gusts to 30 mph. Showers and thunderstorms are expected to continue into early evening.

×

10-Day Weather Forecast

Almanac

Astronomy

Aug. 22, 2014 Rise Set
Actual Time 6:09 AM PDT 8:02 PM PDT
Civil Twilight 5:37 AM PDT 8:34 PM PDT
Nautical Twilight 4:56 AM PDT 9:14 PM PDT
Astronomical Twilight 4:12 AM PDT 9:58 PM PDT
Moon 3:32 AM PDT 6:17 PM PDT
Length of Visible Light 14h 57m
Length of Day
13h 52m
Tomorrow will be 3m 9s shorter.
Waning Crescent, 6% of the Moon is Illuminated
Today
Waning Crescent
Aug 25
New
Sep 2
First Quarter
Sep 8
Full
Sep 15
Last Quarter

Today's Extremes

State Highs State Lows

Community

WunderPhotos

Upload Photos

1,746,278 photos uploaded!

WunderBlogs® & News

By Dr. Jeff Masters
Director of Meteorology, Weather Underground
By Kari Strenfel
Meteorologist, Weather Underground
By Christopher C. Burt
Weather Historian, Weather Underground
August 22, 2014
August 22, 2014
August 22, 2014

Nearby

Snow Depth

Station Depth Elevation
Stampede Pass 1 in 3860 ft
Grouse Camp 0 in 5380 ft
Meadows Pass 0 in 3500 ft
Upper Wheeler 0 in 4400 ft
Trough 0 in 5300 ft

Earthquake Activity

City Distance Mag. Time & Date
No recent earthquake activity has been reported nearby.
Minimum magnitude displayed is 2.5.

Coastal Water Temperatures

Place Temperature
No Stations Reporting

Nearby Weather Stations